sensor_id;sensor_type;location;lat;lon;timestamp;temperature;humidity
9265;DHT22;4669;49.594;10.958;2023-07-31T04:29:13;18.60;96.70
9265;DHT22;4669;49.594;10.958;2023-07-31T04:34:16;18.60;96.80
9265;DHT22;4669;49.594;10.958;2023-07-31T04:39:18;18.50;97.00
9265;DHT22;4669;49.594;10.958;2023-07-31T04:44:21;18.50;97.10
9265;DHT22;4669;49.594;10.958;2023-07-31T04:49:23;18.50;97.00
9265;DHT22;4669;49.594;10.958;2023-07-31T04:54:25;18.50;97.30
9265;DHT22;4669;49.594;10.958;2023-07-31T04:59:28;18.50;97.00
9265;DHT22;4669;49.594;10.958;2023-07-31T05:04:30;18.50;97.10
9265;DHT22;4669;49.594;10.958;2023-07-31T05:09:32;18.50;97.10
9265;DHT22;4669;49.594;10.958;2023-07-31T05:14:35;18.50;97.10
9265;DHT22;4669;49.594;10.958;2023-07-31T05:19:37;18.60;96.90
9265;DHT22;4669;49.594;10.958;2023-07-31T05:24:39;18.60;97.00
9265;DHT22;4669;49.594;10.958;2023-07-31T05:29:42;18.60;97.10
9265;DHT22;4669;49.594;10.958;2023-07-31T05:34:44;18.70;97.00
9265;DHT22;4669;49.594;10.958;2023-07-31T05:39:46;18.70;97.20
9265;DHT22;4669;49.594;10.958;2023-07-31T05:44:49;18.90;97.00
9265;DHT22;4669;49.594;10.958;2023-07-31T05:49:51;18.90;97.00
9265;DHT22;4669;49.594;10.958;2023-07-31T05:54:53;18.90;96.80
9265;DHT22;4669;49.594;10.958;2023-07-31T05:59:57;18.90;96.90
9265;DHT22;4669;49.594;10.958;2023-07-31T06:04:59;19.00;96.80
9265;DHT22;4669;49.594;10.958;2023-07-31T06:10:01;19.00;97.00
9265;DHT22;4669;49.594;10.958;2023-07-31T06:15:07;19.00;97.10
9265;DHT22;4669;49.594;10.958;2023-07-31T06:20:09;19.10;97.00
9265;DHT22;4669;49.594;10.958;2023-07-31T06:25:12;19.10;97.00
9265;DHT22;4669;49.594;10.958;2023-07-31T06:30:15;19.20;97.00
9265;DHT22;4669;49.594;10.958;2023-07-31T06:35:17;19.20;97.00
9265;DHT22;4669;49.594;10.958;2023-07-31T06:40:19;19.30;96.90
9265;DHT22;4669;49.594;10.958;2023-07-31T06:45:22;19.40;96.80
9265;DHT22;4669;49.594;10.958;2023-07-31T06:50:24;19.50;96.50
9265;DHT22;4669;49.594;10.958;2023-07-31T06:55:26;19.60;96.30
9265;DHT22;4669;49.594;10.958;2023-07-31T07:00:30;19.70;96.00
9265;DHT22;4669;49.594;10.958;2023-07-31T07:05:32;19.80;96.20
9265;DHT22;4669;49.594;10.958;2023-07-31T07:10:34;19.80;95.20
9265;DHT22;4669;49.594;10.958;2023-07-31T07:15:37;19.80;95.30
9265;DHT22;4669;49.594;10.958;2023-07-31T07:20:39;19.90;95.20
9265;DHT22;4669;49.594;10.958;2023-07-31T07:25:42;19.90;94.80
9265;DHT22;4669;49.594;10.958;2023-07-31T07:30:45;19.90;94.60
9265;DHT22;4669;49.594;10.958;2023-07-31T07:35:47;19.90;95.00
9265;DHT22;4669;49.594;10.958;2023-07-31T07:40:50;19.80;95.10
9265;DHT22;4669;49.594;10.958;2023-07-31T07:45:55;19.80;95.00
9265;DHT22;4669;49.594;10.958;2023-07-31T07:50:57;19.80;95.00
9265;DHT22;4669;49.594;10.958;2023-07-31T07:55:59;19.90;95.10
9265;DHT22;4669;49.594;10.958;2023-07-31T08:01:02;20.00;95.10
9265;DHT22;4669;49.594;10.958;2023-07-31T08:06:04;20.10;94.70
9265;DHT22;4669;49.594;10.958;2023-07-31T08:11:06;20.10;95.10
9265;DHT22;4669;49.594;10.958;2023-07-31T08:16:09;20.10;95.10
9265;DHT22;4669;49.594;10.958;2023-07-31T08:21:11;20.40;94.90
9265;DHT22;4669;49.594;10.958;2023-07-31T08:26:15;20.40;94.70
9265;DHT22;4669;49.594;10.958;2023-07-31T08:31:19;20.50;94.80
9265;DHT22;4669;49.594;10.958;2023-07-31T08:36:21;20.60;94.90
9265;DHT22;4669;49.594;10.958;2023-07-31T08:41:22;20.60;95.20
9265;DHT22;4669;49.594;10.958;2023-07-31T08:46:26;20.70;94.80
9265;DHT22;4669;49.594;10.958;2023-07-31T08:51:28;20.70;94.90
9265;DHT22;4669;49.594;10.958;2023-07-31T08:56:32;20.80;94.60
9265;DHT22;4669;49.594;10.958;2023-07-31T09:01:39;20.80;95.20
9265;DHT22;4669;49.594;10.958;2023-07-31T09:06:45;20.90;94.40
9265;DHT22;4669;49.594;10.958;2023-07-31T09:11:49;21.00;94.40
9265;DHT22;4669;49.594;10.958;2023-07-31T09:16:55;21.10;94.70
9265;DHT22;4669;49.594;10.958;2023-07-31T09:21:59;21.30;94.50
9265;DHT22;4669;49.594;10.958;2023-07-31T09:27:01;21.50;94.40
9265;DHT22;4669;49.594;10.958;2023-07-31T09:32:16;21.50;93.90
9265;DHT22;4669;49.594;10.958;2023-07-31T09:37:18;21.60;93.90
9265;DHT22;4669;49.594;10.958;2023-07-31T09:42:25;21.60;93.30
9265;DHT22;4669;49.594;10.958;2023-07-31T09:47:28;21.30;93.20
9265;DHT22;4669;49.594;10.958;2023-07-31T09:52:31;21.40;93.70
9265;DHT22;4669;49.594;10.958;2023-07-31T09:57:33;21.60;93.40
9265;DHT22;4669;49.594;10.958;2023-07-31T10:02:37;21.60;93.40
9265;DHT22;4669;49.594;10.958;2023-07-31T10:07:41;21.70;93.00
9265;DHT22;4669;49.594;10.958;2023-07-31T10:12:44;21.70;92.90
9265;DHT22;4669;49.594;10.958;2023-07-31T10:17:50;21.70;92.90
9265;DHT22;4669;49.594;10.958;2023-07-31T10:22:52;21.70;92.80
9265;DHT22;4669;49.594;10.958;2023-07-31T10:27:55;21.70;93.10
9265;DHT22;4669;49.594;10.958;2023-07-31T10:33:00;21.90;93.00
9265;DHT22;4669;49.594;10.958;2023-07-31T10:38:12;22.10;92.20
9265;DHT22;4669;49.594;10.958;2023-07-31T10:43:24;22.20;92.50
9265;DHT22;4669;49.594;10.958;2023-07-31T10:48:33;22.20;92.20
9265;DHT22;4669;49.594;10.958;2023-07-31T10:53:36;22.00;92.40
9265;DHT22;4669;49.594;10.958;2023-07-31T10:58:39;22.00;92.40
9265;DHT22;4669;49.594;10.958;2023-07-31T11:03:44;21.90;92.40
9265;DHT22;4669;49.594;10.958;2023-07-31T11:08:47;21.90;92.60
9265;DHT22;4669;49.594;10.958;2023-07-31T11:13:50;22.00;92.30
9265;DHT22;4669;49.594;10.958;2023-07-31T11:18:54;22.00;92.40
9265;DHT22;4669;49.594;10.958;2023-07-31T11:23:57;22.20;92.00
9265;DHT22;4669;49.594;10.958;2023-07-31T11:28:59;22.20;91.70
9265;DHT22;4669;49.594;10.958;2023-07-31T11:34:06;22.10;91.80
9265;DHT22;4669;49.594;10.958;2023-07-31T11:39:09;22.20;91.60
9265;DHT22;4669;49.594;10.958;2023-07-31T11:44:10;22.10;92.10
9265;DHT22;4669;49.594;10.958;2023-07-31T11:49:15;21.90;91.70
9265;DHT22;4669;49.594;10.958;2023-07-31T11:54:17;21.90;91.90
9265;DHT22;4669;49.594;10.958;2023-07-31T11:59:19;21.90;91.80
9265;DHT22;4669;49.594;10.958;2023-07-31T12:04:23;21.90;92.00
9265;DHT22;4669;49.594;10.958;2023-07-31T12:09:26;22.00;92.40
9265;DHT22;4669;49.594;10.958;2023-07-31T12:14:28;22.00;92.30
9265;DHT22;4669;49.594;10.958;2023-07-31T12:19:31;22.10;91.90
9265;DHT22;4669;49.594;10.958;2023-07-31T12:24:34;22.20;91.20
9265;DHT22;4669;49.594;10.958;2023-07-31T12:29:38;22.30;91.20
9265;DHT22;4669;49.594;10.958;2023-07-31T12:34:43;22.30;91.30
9265;DHT22;4669;49.594;10.958;2023-07-31T12:39:45;22.40;91.30
9265;DHT22;4669;49.594;10.958;2023-07-31T12:44:47;22.50;90.90
9265;DHT22;4669;49.594;10.958;2023-07-31T12:49:50;22.80;91.00
9265;DHT22;4669;49.594;10.958;2023-07-31T12:54:52;23.10;90.70
9265;DHT22;4669;49.594;10.958;2023-07-31T12:59:54;23.20;90.60
9265;DHT22;4669;49.594;10.958;2023-07-31T13:04:57;23.20;90.30
9265;DHT22;4669;49.594;10.958;2023-07-31T13:09:59;23.20;90.30
9265;DHT22;4669;49.594;10.958;2023-07-31T13:15:01;23.20;90.20
9265;DHT22;4669;49.594;10.958;2023-07-31T13:20:05;23.10;90.20
9265;DHT22;4669;49.594;10.958;2023-07-31T13:25:07;23.20;90.70
9265;DHT22;4669;49.594;10.958;2023-07-31T13:30:09;23.20;90.20
9265;DHT22;4669;49.594;10.958;2023-07-31T13:35:13;23.20;90.50
9265;DHT22;4669;49.594;10.958;2023-07-31T13:40:14;23.20;90.30
9265;DHT22;4669;49.594;10.958;2023-07-31T13:45:16;23.50;91.10
9265;DHT22;4669;49.594;10.958;2023-07-31T13:50:25;23.80;88.80
9265;DHT22;4669;49.594;10.958;2023-07-31T13:55:27;23.90;89.50
9265;DHT22;4669;49.594;10.958;2023-07-31T14:00:29;23.80;90.00
9265;DHT22;4669;49.594;10.958;2023-07-31T14:05:33;23.80;90.20
9265;DHT22;4669;49.594;10.958;2023-07-31T14:10:35;23.80;88.90
9265;DHT22;4669;49.594;10.958;2023-07-31T14:15:36;23.60;89.80
9265;DHT22;4669;49.594;10.958;2023-07-31T14:20:40;23.30;89.70
9265;DHT22;4669;49.594;10.958;2023-07-31T14:25:42;23.10;90.30
9265;DHT22;4669;49.594;10.958;2023-07-31T14:30:43;23.10;90.10
9265;DHT22;4669;49.594;10.958;2023-07-31T14:35:47;22.90;90.20
9265;DHT22;4669;49.594;10.958;2023-07-31T14:40:48;22.90;90.10
9265;DHT22;4669;49.594;10.958;2023-07-31T14:45:50;22.80;90.40
9265;DHT22;4669;49.594;10.958;2023-07-31T14:50:55;22.80;90.40
9265;DHT22;4669;49.594;10.958;2023-07-31T14:55:57;22.80;90.30
9265;DHT22;4669;49.594;10.958;2023-07-31T15:00:59;22.80;90.50
9265;DHT22;4669;49.594;10.958;2023-07-31T15:06:02;22.70;90.60
9265;DHT22;4669;49.594;10.958;2023-07-31T15:11:05;22.60;90.00
9265;DHT22;4669;49.594;10.958;2023-07-31T15:16:07;22.50;90.10
9265;DHT22;4669;49.594;10.958;2023-07-31T15:21:11;22.40;90.10
9265;DHT22;4669;49.594;10.958;2023-07-31T15:26:13;22.40;90.40
9265;DHT22;4669;49.594;10.958;2023-07-31T15:31:14;22.40;90.40
9265;DHT22;4669;49.594;10.958;2023-07-31T15:36:18;22.30;90.60
9265;DHT22;4669;49.594;10.958;2023-07-31T15:41:20;22.30;90.70
9265;DHT22;4669;49.594;10.958;2023-07-31T15:46:22;22.30;90.90
9265;DHT22;4669;49.594;10.958;2023-07-31T21:04:47;19.50;99.90
9265;DHT22;4669;49.594;10.958;2023-07-31T21:09:49;19.50;99.90
9265;DHT22;4669;49.594;10.958;2023-07-31T21:14:51;19.50;99.90
9265;DHT22;4669;49.594;10.958;2023-07-31T21:19:54;19.50;99.90
9265;DHT22;4669;49.594;10.958;2023-07-31T21:24:56;19.50;99.90
9265;DHT22;4669;49.594;10.958;2023-07-31T21:29:58;19.50;99.90
9265;DHT22;4669;49.594;10.958;2023-07-31T21:35:02;19.60;99.90
9265;DHT22;4669;49.594;10.958;2023-07-31T21:40:05;19.50;99.90
9265;DHT22;4669;49.594;10.958;2023-07-31T21:45:07;19.50;99.90
9265;DHT22;4669;49.594;10.958;2023-07-31T21:50:11;19.40;99.90
9265;DHT22;4669;49.594;10.958;2023-07-31T21:55:13;19.40;99.90
